Other Surface Observations
Issued by NWS Great Falls, MT

Home | Current Version | Previous Version | Text Only | Print | Product List | Glossary On
Versions: 1 2 3 4 5 6 7 8 9 10 11 12 13 14 15 16 17 18 19 20 21 22 23 24 25 26 27 28 29 30 31 32 33 34 35 36 37 38 39 40 41 42 43 44 45 46 47 48 49 50
000
SXUS55 KTFX 232129
OSOTFX

AREA AWOS OBSERVATIONS
NATIONAL WEATHER SERVICE GREAT FALLS MT
0329 PM MDT Mon Apr 23 2018

METAR K3U3 232128Z AUTO 36007G17KTKT 04/M02 A3039
METAR K38S 232129Z AUTO 03009G14KTKT 10SM 06/M03 A3042
METAR K6S5 232128Z AUTO 13003 10SM 11/M04 A3036
METAR K1S3 232128Z AUTO 26006KT 01/01 A3036
METAR KPWD 232128Z AUTO 01017G23KTKT 10SM 11/M06 A3031
METAR KPO1 232128Z AUTO 01010G17KTKT  10SM 10/M03 A3033



USA.gov is the U.S. government's official web portal to all federal, state and local government web resources and services.